TimeMDT,TemperatureF,Dew PointF,Humidity,Sea Level PressureIn,VisibilityMPH,Wind Direction,Wind SpeedMPH,Gust SpeedMPH,PrecipitationIn,Events,Conditions,WindDirDegrees,DateUTC
12:15 AM,59.0,57.2,94,30.32,10.0,North,10.4,-,N/A,,Overcast,10,2013-07-17 06:15:00
12:35 AM,59.0,57.2,94,30.32,10.0,NNW,8.1,-,N/A,,Overcast,340,2013-07-17 06:35:00
12:55 AM,59.0,57.2,94,30.32,10.0,NNE,10.4,-,N/A,,Overcast,30,2013-07-17 06:55:00
1:16 AM,60.8,57.2,88,30.32,10.0,NE,5.8,-,N/A,,Overcast,40,2013-07-17 07:16:00
1:35 AM,60.8,57.2,88,30.32,10.0,Calm,Calm,-,N/A,,Overcast,0,2013-07-17 07:35:00
1:55 AM,60.8,57.2,88,30.32,10.0,Calm,Calm,-,N/A,,Mostly Cloudy,0,2013-07-17 07:55:00
2:15 AM,59.0,57.2,94,30.32,10.0,Calm,Calm,-,N/A,,Partly Cloudy,0,2013-07-17 08:15:00
2:35 AM,59.0,57.2,94,30.32,10.0,NNE,3.5,-,N/A,,Clear,30,2013-07-17 08:35:00
2:55 AM,57.2,57.2,100,30.32,10.0,Calm,Calm,-,N/A,,Partly Cloudy,0,2013-07-17 08:55:00
3:15 AM,57.2,55.4,94,30.31,10.0,ENE,5.8,-,N/A,,Partly Cloudy,60,2013-07-17 09:15:00
3:35 AM,59.0,55.4,88,30.31,10.0,NE,4.6,-,N/A,,Scattered Clouds,40,2013-07-17 09:35:00
3:55 AM,59.0,55.4,88,30.31,10.0,Calm,Calm,-,N/A,,Partly Cloudy,0,2013-07-17 09:55:00
4:15 AM,57.2,55.4,94,30.31,10.0,Calm,Calm,-,N/A,,Scattered Clouds,0,2013-07-17 10:15:00
4:35 AM,57.2,55.4,94,30.31,10.0,NE,3.5,-,N/A,,Overcast,40,2013-07-17 10:35:00
4:55 AM,57.2,55.4,94,30.31,10.0,Calm,Calm,-,N/A,,Overcast,0,2013-07-17 10:55:00
5:16 AM,55.4,55.4,100,30.31,10.0,Calm,Calm,-,N/A,,Scattered Clouds,0,2013-07-17 11:16:00
5:35 AM,55.4,55.4,100,30.31,10.0,North,3.5,-,N/A,,Clear,360,2013-07-17 11:35:00
5:55 AM,55.4,55.4,100,30.32,10.0,North,3.5,-,N/A,,Clear,10,2013-07-17 11:55:00
6:15 AM,55.4,55.4,100,30.32,10.0,NNE,3.5,-,N/A,,Scattered Clouds,20,2013-07-17 12:15:00
6:35 AM,55.4,53.6,94,30.33,10.0,Calm,Calm,-,N/A,,Mostly Cloudy,0,2013-07-17 12:35:00
6:54 AM,55.4,53.6,94,30.33,10.0,Calm,Calm,-,N/A,,Scattered Clouds,0,2013-07-17 12:54:00
7:51 AM,57.2,57.2,100,30.34,10.0,Calm,Calm,-,N/A,,Mostly Cloudy,0,2013-07-17 13:51:00
8:51 AM,59.0,57.2,94,30.35,10.0,Calm,Calm,-,N/A,,Mostly Cloudy,0,2013-07-17 14:51:00
9:52 AM,60.8,57.2,88,30.35,10.0,Calm,Calm,-,N/A,,Mostly Cloudy,0,2013-07-17 15:52:00
10:52 AM,64.4,57.2,77,30.34,10.0,Calm,Calm,-,N/A,,Mostly Cloudy,0,2013-07-17 16:52:00
12:16 PM,73.4,53.6,50,30.33,10.0,SSE,4.6,-,N/A,,Clear,160,2013-07-17 18:16:00
12:53 PM,75.2,55.4,50,30.32,10.0,SSW,3.5,-,N/A,,Partly Cloudy,200,2013-07-17 18:53:00
1:51 PM,80.6,53.6,39,30.30,10.0,Calm,Calm,-,N/A,,Partly Cloudy,0,2013-07-17 19:51:00
2:51 PM,80.6,55.4,42,30.28,10.0,WSW,6.9,-,N/A,,Scattered Clouds,250,2013-07-17 20:51:00
3:51 PM,82.4,50.0,32,30.26,10.0,WSW,4.6,-,N/A,,Clear,240,2013-07-17 21:51:00
4:54 PM,84.2,51.8,33,30.24,10.0,South,4.6,-,N/A,,Clear,190,2013-07-17 22:54:00
5:51 PM,84.2,51.8,33,30.22,10.0,SW,5.8,-,N/A,,Clear,230,2013-07-17 23:51:00
6:51 PM,78.8,53.6,42,30.22,10.0,South,5.8,-,N/A,,Scattered Clouds,190,2013-07-18 00:51:00
7:25 PM,71.6,53.6,53,30.24,7.0,SSW,28.8,36.8,N/A,Rain-Thunderstorm,Thunderstorms and Rain,210,2013-07-18 01:25:00
7:55 PM,68.0,55.4,64,30.25,10.0,WNW,3.5,-,N/A,,Scattered Clouds,300,2013-07-18 01:55:00
8:51 PM,66.2,57.2,73,30.26,10.0,SE,3.5,-,N/A,,Clear,130,2013-07-18 02:51:00
8:55 PM,66.2,57.2,73,30.26,10.0,Calm,Calm,-,N/A,,Clear,0,2013-07-18 02:55:00
9:15 PM,66.2,53.6,64,30.26,10.0,Calm,Calm,-,N/A,,Clear,0,2013-07-18 03:15:00
9:35 PM,66.2,55.4,68,30.27,10.0,ESE,4.6,-,N/A,,Clear,110,2013-07-18 03:35:00
9:55 PM,66.2,51.8,60,30.28,10.0,NE,4.6,-,N/A,,Clear,40,2013-07-18 03:55:00
10:15 PM,62.6,59.0,88,30.29,10.0,Calm,Calm,-,N/A,,Mostly Cloudy,0,2013-07-18 04:15:00
10:35 PM,59.0,57.2,94,30.30,10.0,North,6.9,-,N/A,,Mostly Cloudy,350,2013-07-18 04:35:00
10:55 PM,60.8,57.2,88,30.30,10.0,North,13.8,-,N/A,,Scattered Clouds,10,2013-07-18 04:55:00
11:15 PM,62.6,55.4,77,30.30,10.0,North,15.0,-,N/A,,Mostly Cloudy,360,2013-07-18 05:15:00
11:35 PM,60.8,55.4,82,30.31,10.0,North,12.7,-,N/A,,Overcast,360,2013-07-18 05:35:00
11:55 PM,62.6,53.6,72,30.32,10.0,North,8.1,-,N/A,,Overcast,10,2013-07-18 05:55:00